createdAt,value
2023-04-26T00:03:14.257Z,87.77
2023-04-26T00:08:24.470Z,88.24
2023-04-26T00:13:29.872Z,88.59
2023-04-26T00:18:35.122Z,88.54
2023-04-26T00:23:42.846Z,89.89
2023-04-26T00:28:47.840Z,90.56
2023-04-26T00:33:54.348Z,90.90
2023-04-26T00:39:02.723Z,91.90
2023-04-26T00:44:08.507Z,91.25
2023-04-26T00:49:18.404Z,92.37
2023-04-26T00:54:28.061Z,92.36
2023-04-26T00:59:35.771Z,92.05
2023-04-26T01:04:42.612Z,93.97
2023-04-26T01:09:54.078Z,92.98
2023-04-26T01:15:00.513Z,93.15
2023-04-26T01:20:05.817Z,95.12
2023-04-26T01:25:16.450Z,95.88
2023-04-26T01:30:21.485Z,96.16
2023-04-26T01:35:28.793Z,96.97
2023-04-26T01:40:37.422Z,98.16
2023-04-26T01:45:44.575Z,97.12
2023-04-26T01:51:08.954Z,98.20
2023-04-26T01:56:18.564Z,98.13
2023-04-26T02:01:24.157Z,97.75
2023-04-26T02:06:29.619Z,98.10
2023-04-26T02:11:37.247Z,97.44
2023-04-26T02:16:43.683Z,97.94
2023-04-26T02:21:57.874Z,98.09
2023-04-26T02:27:05.804Z,97.65
2023-04-26T02:32:14.476Z,98.23
2023-04-26T02:37:22.176Z,98.19
2023-04-26T02:42:29.879Z,97.76
2023-04-26T02:47:37.117Z,97.79
2023-04-26T02:52:43.820Z,97.88
2023-04-26T02:57:51.667Z,97.21
2023-04-26T03:02:57.239Z,97.58
2023-04-26T03:08:02.634Z,96.58
2023-04-26T03:13:10.743Z,97.69
2023-04-26T03:18:17.326Z,98.16
2023-04-26T03:23:24.500Z,99.24
2023-04-26T03:28:36.237Z,99.23
2023-04-26T03:33:41.372Z,98.49
2023-04-26T03:38:47.015Z,98.00
2023-04-26T03:43:56.987Z,98.87
2023-04-26T03:49:02.364Z,99.53
2023-04-26T03:54:09.241Z,97.67
2023-04-26T03:59:17.185Z,98.56
2023-04-26T04:04:22.866Z,98.25
2023-04-26T04:09:29.061Z,97.76
2023-04-26T04:14:36.846Z,98.43
2023-04-26T04:19:45.389Z,97.43
2023-04-26T04:24:50.380Z,96.36
2023-04-26T04:30:05.650Z,90.43
2023-04-26T04:35:14.654Z,86.26
2023-04-26T04:40:22.708Z,81.94
2023-04-26T04:45:30.952Z,74.88
2023-04-26T04:50:38.934Z,74.25
2023-04-26T04:55:44.942Z,78.13
2023-04-26T05:00:56.263Z,73.50
2023-04-26T05:06:08.316Z,71.01
2023-04-26T05:11:14.449Z,71.48
2023-04-26T05:16:25.258Z,63.57
2023-04-26T05:21:31.812Z,65.74
2023-04-26T05:26:38.501Z,62.61
2023-04-26T05:32:18.805Z,63.79
2023-04-26T05:37:31.888Z,64.64
2023-04-26T05:42:37.365Z,65.12
2023-04-26T05:47:50.037Z,70.45
2023-04-26T05:52:57.599Z,62.79
2023-04-26T05:58:05.259Z,61.56
2023-04-26T06:03:13.648Z,64.63
2023-04-26T06:08:21.494Z,62.61
2023-04-26T06:13:34.376Z,66.43
2023-04-26T06:18:44.643Z,73.83
2023-04-26T06:23:51.087Z,80.36
2023-04-26T06:29:02.145Z,81.60
2023-04-26T06:34:11.502Z,77.84
2023-04-26T06:39:18.474Z,80.04
2023-04-26T06:44:24.393Z,79.93
2023-04-26T06:49:50.367Z,74.55
2023-04-26T06:54:59.394Z,63.69
2023-04-26T07:00:05.746Z,71.11
2023-04-26T07:05:17.720Z,68.05
2023-04-26T07:10:25.730Z,68.55
2023-04-26T07:15:35.904Z,71.84
2023-04-26T07:20:49.519Z,66.94
2023-04-26T07:25:59.550Z,70.75
2023-04-26T07:31:22.091Z,71.75
2023-04-26T07:36:48.569Z,69.50
2023-04-26T07:41:57.339Z,68.79
2023-04-26T07:47:03.507Z,66.63
2023-04-26T07:52:12.564Z,70.03
2023-04-26T07:57:18.342Z,65.96
2023-04-26T08:02:36.815Z,67.05
2023-04-26T08:07:52.795Z,66.62
2023-04-26T08:12:58.172Z,66.53
2023-04-26T08:18:04.418Z,66.98
2023-04-26T08:23:33.237Z,66.32
2023-04-26T08:28:58.162Z,66.23
2023-04-26T08:34:24.971Z,65.67
2023-04-26T08:39:36.704Z,62.87
2023-04-26T08:44:47.065Z,64.29
2023-04-26T08:50:00.121Z,65.48
2023-04-26T08:55:14.951Z,63.15
2023-04-26T09:00:23.446Z,61.95
2023-04-26T09:05:50.356Z,60.91
2023-04-26T09:11:02.084Z,61.64
2023-04-26T09:16:10.312Z,61.14
2023-04-26T09:21:18.225Z,62.67
2023-04-26T09:26:28.096Z,61.36
2023-04-26T09:31:43.459Z,62.16
2023-04-26T09:36:52.210Z,63.74
2023-04-26T09:42:00.692Z,62.97
2023-04-26T09:47:09.037Z,60.44
2023-04-26T09:52:15.783Z,60.62
2023-04-26T09:57:48.477Z,56.78
2023-04-26T10:03:20.029Z,56.53
2023-04-26T10:08:32.302Z,58.02
2023-04-26T10:13:46.346Z,58.41
2023-04-26T10:18:56.187Z,53.80
2023-04-26T10:24:38.707Z,52.21
2023-04-26T10:30:17.022Z,55.69
2023-04-26T10:35:24.911Z,57.30
2023-04-26T10:40:32.934Z,59.05
2023-04-26T10:45:45.837Z,60.21
2023-04-26T10:51:14.873Z,61.09
2023-04-26T10:56:56.429Z,58.79
2023-04-26T11:02:14.957Z,57.62
2023-04-26T11:07:39.917Z,58.29
2023-04-26T11:13:04.123Z,58.94
2023-04-26T11:18:13.400Z,55.77
2023-04-26T11:23:21.234Z,50.80
2023-04-26T11:28:26.496Z,55.74
2023-04-26T11:33:36.182Z,55.69
2023-04-26T11:38:41.997Z,58.63
2023-04-26T11:43:49.306Z,59.12
2023-04-26T11:48:57.579Z,57.29
2023-04-26T11:54:05.149Z,56.61
2023-04-26T11:59:11.928Z,57.53
2023-04-26T12:04:32.004Z,55.31
2023-04-26T12:09:44.001Z,56.81
2023-04-26T12:14:54.357Z,59.13
2023-04-26T12:20:04.380Z,58.21
2023-04-26T12:25:13.091Z,56.92
2023-04-26T12:30:18.897Z,57.78
2023-04-26T12:35:40.374Z,57.83
2023-04-26T12:41:04.042Z,56.62
2023-04-26T12:46:11.577Z,56.99
2023-04-26T12:51:19.416Z,57.70
2023-04-26T12:56:27.005Z,57.19
2023-04-26T13:01:32.439Z,57.09
2023-04-26T13:06:42.286Z,57.62
2023-04-26T13:11:47.659Z,54.91
2023-04-26T13:16:56.635Z,55.86
2023-04-26T13:22:08.726Z,55.12
2023-04-26T13:27:18.266Z,54.70
2023-04-26T13:32:25.096Z,55.21
2023-04-26T13:37:34.018Z,55.13
2023-04-26T13:42:39.233Z,53.33
2023-04-26T13:47:46.712Z,55.28
2023-04-26T13:52:55.429Z,55.67
2023-04-26T13:58:00.572Z,57.29
2023-04-26T14:03:06.065Z,56.84
2023-04-26T14:08:15.659Z,56.92
2023-04-26T14:13:26.145Z,57.20
2023-04-26T14:18:31.294Z,57.07
2023-04-26T14:23:40.444Z,55.90
2023-04-26T14:28:46.714Z,54.57
2023-04-26T14:33:56.885Z,56.06
2023-04-26T14:39:04.764Z,57.84
2023-04-26T14:44:11.411Z,58.09
2023-04-26T14:49:17.107Z,58.27
2023-04-26T14:54:26.203Z,58.17
2023-04-26T14:59:37.008Z,58.46
2023-04-26T15:04:43.026Z,58.20
2023-04-26T15:09:52.784Z,57.39
2023-04-26T15:14:57.973Z,57.20
2023-04-26T15:20:06.625Z,57.35
2023-04-26T15:25:15.054Z,57.06
2023-04-26T15:30:22.301Z,58.18
2023-04-26T15:35:28.044Z,57.63
2023-04-26T15:40:38.410Z,57.94
2023-04-26T15:45:43.797Z,58.12
2023-04-26T15:50:48.994Z,58.88
2023-04-26T15:55:56.639Z,59.46
2023-04-26T16:01:01.640Z,61.09
2023-04-26T16:06:08.957Z,60.51
2023-04-26T16:11:16.623Z,61.00
2023-04-26T16:16:24.255Z,61.36
2023-04-26T16:21:32.061Z,61.04
2023-04-26T16:26:41.229Z,60.94
2023-04-26T16:31:46.575Z,60.26
2023-04-26T16:36:51.706Z,61.50
2023-04-26T16:41:59.373Z,61.30
2023-04-26T16:47:05.729Z,61.72
2023-04-26T16:52:11.022Z,61.50
2023-04-26T16:57:20.509Z,62.37
2023-04-26T17:02:25.624Z,62.81
2023-04-26T17:07:31.101Z,63.92
2023-04-26T17:12:38.809Z,62.68
2023-04-26T17:17:44.100Z,63.46
2023-04-26T17:22:52.170Z,64.58
2023-04-26T17:27:59.876Z,63.13
2023-04-26T17:33:05.647Z,62.69
2023-04-26T17:38:11.071Z,62.27
2023-04-26T17:43:19.024Z,62.37
2023-04-26T17:48:24.413Z,62.03
2023-04-26T17:53:29.675Z,63.41
2023-04-26T17:58:37.397Z,63.40
2023-04-26T18:03:42.940Z,63.32
2023-04-26T18:08:48.684Z,63.98
2023-04-26T18:13:58.232Z,64.15
2023-04-26T18:19:05.531Z,64.04
2023-04-26T18:24:11.746Z,65.05
2023-04-26T18:29:20.022Z,63.78
2023-04-26T18:34:25.200Z,64.71
2023-04-26T18:39:30.570Z,64.98
2023-04-26T18:44:38.260Z,64.68
2023-04-26T18:49:43.344Z,65.17
2023-04-26T18:54:48.388Z,65.92
2023-04-26T18:59:57.654Z,64.53
2023-04-26T19:05:04.812Z,64.22
2023-04-26T19:10:11.908Z,65.34
2023-04-26T19:15:19.971Z,66.44
2023-04-26T19:20:27.424Z,66.15
2023-04-26T19:25:32.674Z,65.63
2023-04-26T19:30:42.219Z,67.22
2023-04-26T19:35:50.018Z,67.37
2023-04-26T19:40:55.478Z,68.13
2023-04-26T19:46:03.438Z,70.27
2023-04-26T19:51:08.453Z,69.90
2023-04-26T19:56:13.764Z,71.07
2023-04-26T20:01:24.409Z,72.47
2023-04-26T20:06:30.469Z,73.17
2023-04-26T20:11:35.624Z,72.50
2023-04-26T20:16:44.507Z,72.96
2023-04-26T20:21:49.565Z,72.61
2023-04-26T20:26:54.839Z,73.96
2023-04-26T20:32:02.513Z,77.19
2023-04-26T20:37:07.744Z,78.86
2023-04-26T20:42:15.518Z,80.17
2023-04-26T20:47:23.368Z,81.87
2023-04-26T20:52:28.573Z,83.50
2023-04-26T20:57:33.704Z,83.50
2023-04-26T21:02:41.834Z,83.76
2023-04-26T21:07:48.126Z,84.42
2023-04-26T21:12:53.488Z,85.32
2023-04-26T21:18:02.105Z,86.25
2023-04-26T21:23:07.204Z,86.87
2023-04-26T21:28:12.364Z,86.89
2023-04-26T21:33:20.007Z,87.53
2023-04-26T21:38:25.174Z,88.49
2023-04-26T21:43:30.739Z,89.33
2023-04-26T21:48:39.876Z,89.67
2023-04-26T21:53:45.168Z,90.24
2023-04-26T21:58:50.268Z,90.53
2023-04-26T22:03:58.047Z,90.65
2023-04-26T22:09:03.701Z,91.31
2023-04-26T22:14:08.770Z,91.67
2023-04-26T22:19:16.622Z,91.34
2023-04-26T22:24:21.966Z,87.97
2023-04-26T22:29:27.110Z,92.27
2023-04-26T22:34:34.717Z,93.72
2023-04-26T22:39:40.586Z,94.20
2023-04-26T22:44:45.792Z,92.82
2023-04-26T22:49:55.676Z,92.94
2023-04-26T22:55:01.067Z,93.16
2023-04-26T23:00:09.756Z,93.69
2023-04-26T23:05:18.867Z,93.83
2023-04-26T23:10:24.003Z,94.46
2023-04-26T23:15:29.120Z,94.99
2023-04-26T23:20:36.928Z,96.29
2023-04-26T23:25:42.375Z,96.00
2023-04-26T23:30:47.416Z,95.34
2023-04-26T23:35:57.888Z,95.15
2023-04-26T23:41:03.053Z,95.31
2023-04-26T23:46:08.280Z,95.52
2023-04-26T23:51:16.042Z,96.33
2023-04-26T23:56:21.210Z,97.46
